Paso Robles Municipal Airport
KPRB : rendu visible

Aérodrome :











RETROUVEZ-NOUS SUR...

 
LOGIN :

S'inscrire | Disclaimer

   EN    FR    IT 

 









Légende :    VFR   VFR Marginal   IFR   IFR Intensif   IFR Très Intensif
Visi : 
Plafond : 
>= 8 km
>= 3000ft
5 à 8 km
1000 à 3000 ft
1500m à 5 km
500 à 1000 ft
800 à 1500m
200 à 500 ft
< 800m
< 200 ft
Symboles :   Orages  Brouillard  Fortes neiges  Fortes précipitations  Vent > 20 kt






- Altitude de l'aérodrome : 840 ft


KPRB - Paso Robles Municipal

DERNIER METAR :
  • 201634Z AUTO 29004KT 10SM FEW017 11/08 A2955 RMK AO2 T01060083 $

METARs EXPIRÉS :
  • 201553Z AUTO 34004KT 10SM FEW009 BKN012 BKN020 10/08 A2956 RMK AO2 SLP007 T01000083 $
  • 201545Z AUTO 35003KT 10SM BKN011 OVC020 10/08 A2956 RMK AO2 T01000083 $
  • 201453Z AUTO 31007KT 10SM OVC008 09/08 A2954 RMK AO2 SLP002 T00940083 53007 $
  • 201405Z AUTO 27004KT 10SM BKN009 OVC060 08/07 A2952 RMK AO2 T00830072 $
  • 201353Z AUTO 22003KT 10SM FEW008 SCT014 BKN060 08/07 A2952 RMK AO2 SLP995 T00830072 $

TAF KPRB
Valide du 20 à 16h jusqu'au 21 à 12h UTC


201616Z 2016/2112 34004KT P6SM VCSH FEW009 BKN012 BKN020
FM201900 32008KT P6SM SCT050 BKN150
FM202300 21010KT P6SM BKN150
FM210300 VRB03KT P6SM SCT200



MET'MAP, la Météo Aéronautique d'un coup d'oeil ! - Copyright ORBIFLY Décembre 2007 - Disclaimer

ORBIFLY MET'MAP TEAM :

Programmation & Développement : Alexandra Zaïnal
Conception & Développement : Baudouin d'Aumeries
Co-Programmation & Développement : Marc-Olivier Méhu
Soutien technique & logistique : Manuel Goepfert

Contact : metmap@orbifly.com




SOURCES & CREDITS :

   NOAA       Earth
Advisory